Time;durP1;ratioP1;P1;durP2;ratioP2;P2;SDS_P1;SDS_P2;PMS_P1;PMS_P2;Temp;Humidity;BMP_temperature;BMP_pressure;BME280_temperature;BME280_humidity;BME280_pressure;Samples;Min_cycle;Max_cycle;Signal;HPM_P1;HPM_P2
2022/12/26 00:01:42;;;;;;;13.10;11.90;;;;;;;21.72;34.07;95939.06;6209459;28;103328;-69
2022/12/26 00:04:46;;;;;;;12.10;11.00;;;;;;;21.71;34.06;95928.69;6211271;28;103304;-69
2022/12/26 00:07:55;;;;;;;11.80;10.80;;;;;;;21.70;34.48;95935.91;6204055;28;103505;-70
2022/12/26 00:10:58;;;;;;;12.13;11.03;;;;;;;21.69;34.33;95936.97;6204483;28;103660;-68
2022/12/26 00:14:04;;;;;;;11.40;10.37;;;;;;;21.66;34.22;95928.72;6194912;28;103173;-69
2022/12/26 00:17:07;;;;;;;12.47;11.37;;;;;;;21.69;34.13;95936.19;6210282;28;103600;-69
2022/12/26 00:20:12;;;;;;;13.67;12.37;;;;;;;21.68;34.07;95942.59;6183304;28;104339;-68
2022/12/26 00:23:15;;;;;;;12.17;11.00;;;;;;;21.68;34.41;95945.25;6199186;28;103230;-68
2022/12/26 00:26:20;;;;;;;12.67;11.50;;;;;;;21.67;33.93;95943.63;6208521;28;102799;-68
2022/12/26 00:29:23;;;;;;;12.67;11.53;;;;;;;21.66;33.77;95953.50;6191809;28;103452;-68
2022/12/26 00:32:26;;;;;;;13.30;12.10;;;;;;;21.66;34.02;95952.69;6185476;28;103875;-68
2022/12/26 00:35:30;;;;;;;12.47;11.37;;;;;;;21.65;34.05;95951.91;6195002;28;103710;-68
2022/12/26 00:38:34;;;;;;;12.63;11.53;;;;;;;21.66;33.96;95944.72;6197839;28;103999;-68
2022/12/26 00:41:37;;;;;;;13.10;11.90;;;;;;;21.67;34.02;95938.31;6210277;28;103064;-69
2022/12/26 00:44:40;;;;;;;12.57;11.57;;;;;;;21.66;34.30;95939.38;6199618;28;102974;-68
2022/12/26 00:47:43;;;;;;;13.10;11.90;;;;;;;21.66;34.09;95952.69;6204285;28;103119;-68
2022/12/26 00:50:48;;;;;;;11.97;10.97;;;;;;;21.66;34.20;95950.84;6209603;28;103066;-70
2022/12/26 00:53:51;;;;;;;11.80;10.80;;;;;;;21.68;34.29;95955.91;6192617;28;104343;-67
2022/12/26 00:56:54;;;;;;;12.40;11.30;;;;;;;21.67;33.86;95949.75;6203753;28;103460;-68
2022/12/26 00:59:57;;;;;;;12.00;10.87;;;;;;;21.56;33.62;95934.16;6186599;28;103254;-68
2022/12/26 01:03:00;;;;;;;11.30;10.27;;;;;;;21.65;34.20;95946.59;6208826;28;103573;-68
2022/12/26 01:06:05;;;;;;;12.00;11.00;;;;;;;21.58;34.05;95940.00;6200009;28;103169;-68
2022/12/26 01:09:10;;;;;;;11.30;10.30;;;;;;;21.67;34.25;95955.09;6205648;28;105845;-68
2022/12/26 01:12:14;;;;;;;12.33;11.30;;;;;;;21.66;34.13;95971.34;6209325;28;103520;-68
2022/12/26 01:15:17;;;;;;;11.80;10.70;;;;;;;21.63;33.78;95962.06;6208574;28;103139;-69
2022/12/26 01:18:21;;;;;;;11.60;10.50;;;;;;;21.62;33.59;95962.34;6194797;28;103667;-68
2022/12/26 01:21:25;;;;;;;12.13;11.13;;;;;;;21.58;33.96;95967.44;6210195;28;104150;-69
2022/12/26 01:24:28;;;;;;;12.13;11.13;;;;;;;21.62;33.81;95984.44;6206528;28;103005;-68
2022/12/26 01:27:31;;;;;;;13.30;12.10;;;;;;;21.62;33.76;95986.31;6206197;28;102972;-68
2022/12/26 01:30:34;;;;;;;12.60;11.50;;;;;;;21.58;33.95;95990.59;6198464;28;103081;-68
2022/12/26 01:33:37;;;;;;;13.17;12.07;;;;;;;21.59;33.76;95986.88;6209155;28;105574;-68
2022/12/26 01:36:42;;;;;;;13.30;12.17;;;;;;;21.59;33.76;95989.53;6209638;28;102881;-70
2022/12/26 01:39:45;;;;;;;13.70;12.50;;;;;;;21.59;33.89;95986.88;6203763;28;103326;-69
2022/12/26 01:42:48;;;;;;;12.73;11.53;;;;;;;21.58;33.64;95987.94;6203205;28;104251;-69
2022/12/26 01:45:51;;;;;;;13.00;11.90;;;;;;;21.58;33.55;95977.28;6208480;28;103248;-68
2022/12/26 01:48:58;;;;;;;14.63;13.33;;;;;;;21.57;33.73;95979.16;6207621;28;105778;-68
2022/12/26 01:52:06;;;;;;;15.30;13.80;;;;;;;21.58;33.45;95974.63;6198710;28;103029;-68
2022/12/26 01:55:13;;;;;;;14.27;12.97;;;;;;;21.54;33.89;95976.28;6208332;28;102993;-68
2022/12/26 01:58:21;;;;;;;12.80;11.60;;;;;;;21.52;34.00;95979.22;6202720;28;103060;-68
2022/12/26 02:01:28;;;;;;;13.70;12.40;;;;;;;21.51;33.55;95974.97;6208999;28;105141;-68
2022/12/26 02:07:54;;;;;;;13.83;12.53;;;;;;;21.47;33.51;95966.72;6159574;28;103271;-68
2022/12/26 02:11:05;;;;;;;13.97;12.57;;;;;;;21.47;33.87;95966.72;6212493;28;103564;-68
2022/12/26 02:14:08;;;;;;;13.10;12.00;;;;;;;21.47;33.73;95972.03;6203650;28;104814;-67
2022/12/26 02:17:11;;;;;;;14.03;12.73;;;;;;;21.49;33.31;95953.91;6202941;28;103302;-62
2022/12/26 02:20:20;;;;;;;13.60;12.40;;;;;;;21.54;33.16;95950.44;6210956;28;103563;-62
2022/12/26 02:24:14;;;;;;;14.97;13.60;;;;;;;21.56;33.57;95944.81;6211603;28;103354;-62
2022/12/26 02:27:30;;;;;;;13.93;12.63;;;;;;;21.59;33.80;95941.59;6201814;28;103447;-63
2022/12/26 02:30:41;;;;;;;14.00;12.80;;;;;;;21.58;33.52;95940.78;6192349;28;106451;-63
2022/12/26 02:33:55;;;;;;;13.40;12.30;;;;;;;21.58;33.24;95945.34;6208265;28;102757;-63
2022/12/26 02:37:12;;;;;;;13.03;11.90;;;;;;;21.58;33.17;95943.47;6212297;28;104193;-63
2022/12/26 02:40:38;;;;;;;13.80;12.60;;;;;;;21.47;33.50;95921.44;6188787;28;103441;-63
2022/12/26 02:43:47;;;;;;;13.83;12.63;;;;;;;21.59;33.33;95945.06;6211256;28;103112;-63
2022/12/26 02:47:04;;;;;;;12.77;11.67;;;;;;;21.59;33.11;95941.59;6213142;28;104288;-70
2022/12/26 03:14:07;;;;;;;13.40;12.30;;;;;;;21.58;32.88;95950.66;6201117;28;103829;-69
2022/12/26 03:17:21;;;;;;;12.13;11.03;;;;;;;21.57;33.14;95949.06;6210995;28;106626;-68
2022/12/26 03:20:29;;;;;;;12.33;11.30;;;;;;;21.57;33.28;95959.72;6203548;28;103011;-69
2022/12/26 03:23:34;;;;;;;11.83;10.70;;;;;;;21.55;32.84;95960.00;6207141;28;103896;-69
2022/12/26 03:26:42;;;;;;;12.10;11.00;;;;;;;21.55;33.01;95954.69;6183212;28;103047;-69
2022/12/26 03:34:16;;;;;;;11.47;10.37;;;;;;;21.56;32.97;95968.78;6197144;28;102999;-69
2022/12/26 03:36:43;;;;;;;11.87;10.97;;;;;;;21.56;32.88;95968.78;6198383;28;103126;-69
2022/12/26 04:45:57;;;;;;;9.77;8.50;;;;;;;21.51;32.60;95962.44;6199930;28;103737;-68
2022/12/26 04:52:23;;;;;;;9.23;8.43;;;;;;;21.52;32.67;95972.00;6210033;28;103325;-69
2022/12/26 04:55:28;;;;;;;7.70;7.10;;;;;;;21.52;32.85;95974.69;6209932;28;103167;-69
2022/12/26 04:58:31;;;;;;;8.67;7.97;;;;;;;21.51;32.98;95983.75;6187367;28;103081;-69
2022/12/26 05:11:46;;;;;;;8.50;7.80;;;;;;;21.51;32.48;95978.41;6208895;28;103138;-68
2022/12/26 05:14:49;;;;;;;8.00;7.37;;;;;;;21.39;32.86;95972.66;6209443;28;103005;-71
2022/12/26 05:31:22;;;;;;;7.37;6.77;;;;;;;21.45;32.66;95997.34;6197960;28;103056;-70
2022/12/26 05:34:25;;;;;;;7.97;7.27;;;;;;;21.48;32.36;96016.22;6202240;28;102707;-70
2022/12/26 05:37:29;;;;;;;7.33;6.73;;;;;;;21.49;32.82;96019.69;6205702;28;106134;-68
2022/12/26 05:40:32;;;;;;;7.70;7.00;;;;;;;21.49;32.20;96023.16;6207136;28;104691;-67
2022/12/26 05:43:35;;;;;;;7.30;6.70;;;;;;;21.48;32.69;96021.56;6202314;28;104045;-69
2022/12/26 05:46:39;;;;;;;7.50;6.90;;;;;;;21.43;32.29;96005.63;6213542;28;103102;-70
2022/12/26 05:49:43;;;;;;;6.90;6.30;;;;;;;21.45;32.69;96011.47;6208129;28;103317;-68
2022/12/26 05:52:46;;;;;;;7.07;6.47;;;;;;;21.47;32.39;96011.97;6213900;28;103086;-69
2022/12/26 05:55:49;;;;;;;7.20;6.60;;;;;;;21.39;32.47;96003.81;6201063;28;104323;-69
2022/12/26 05:58:57;;;;;;;6.57;6.00;;;;;;;21.47;32.56;96019.97;6202508;28;104547;-69
2022/12/26 06:02:00;;;;;;;7.37;6.77;;;;;;;21.47;32.25;96019.97;6211340;28;102904;-69
2022/12/26 06:05:05;;;;;;;7.40;6.80;;;;;;;21.47;32.67;96019.97;6207381;28;103064;-69
2022/12/26 06:08:08;;;;;;;7.23;6.57;;;;;;;21.47;32.44;96019.97;6197387;28;104903;-69
2022/12/26 06:11:13;;;;;;;7.60;6.90;;;;;;;21.47;32.45;96019.97;6208702;28;104467;-70
2022/12/26 06:14:16;;;;;;;6.67;6.10;;;;;;;21.45;32.46;96019.47;6211786;28;103164;-70
2022/12/26 06:17:19;;;;;;;7.13;6.63;;;;;;;21.47;32.13;96021.84;6200559;28;104441;-70
2022/12/26 06:20:24;;;;;;;7.30;6.60;;;;;;;21.38;31.84;96021.66;6208240;28;105426;-70
2022/12/26 06:23:27;;;;;;;8.00;7.30;;;;;;;21.48;32.18;96034.06;6211886;28;105693;-69
2022/12/26 06:26:30;;;;;;;6.60;6.10;;;;;;;21.47;32.48;96030.63;6212055;28;103216;-70
2022/12/26 06:29:33;;;;;;;8.07;7.37;;;;;;;21.44;32.00;96025.84;6186036;28;104795;-69
2022/12/26 06:32:36;;;;;;;7.27;6.60;;;;;;;21.38;32.19;96016.31;6210407;28;103330;-69
2022/12/26 06:35:40;;;;;;;7.77;7.07;;;;;;;21.48;32.12;96037.53;6211028;28;103092;-69
2022/12/26 06:38:44;;;;;;;7.67;7.07;;;;;;;21.48;32.45;96042.88;6207688;28;103573;-69
2022/12/26 06:41:47;;;;;;;8.10;7.40;;;;;;;21.48;32.02;96031.41;6201123;28;103389;-69
2022/12/26 06:44:50;;;;;;;7.47;6.87;;;;;;;21.41;32.15;96026.41;6200235;28;103179;-69
2022/12/26 06:47:53;;;;;;;8.53;7.83;;;;;;;21.45;32.03;96040.75;6199303;28;103061;-69
2022/12/26 06:50:58;;;;;;;7.57;6.90;;;;;;;21.48;32.08;96042.88;6206741;28;103128;-69
2022/12/26 06:54:02;;;;;;;8.67;7.87;;;;;;;21.48;32.10;96040.19;6189570;28;104494;-68
2022/12/26 06:57:05;;;;;;;7.87;7.27;;;;;;;21.48;31.94;96053.50;6212577;28;102785;-69
2022/12/26 07:00:09;;;;;;;8.50;7.80;;;;;;;21.50;32.16;96051.38;6204262;28;103953;-69
2022/12/26 07:03:13;;;;;;;7.80;7.00;;;;;;;21.76;31.41;96054.66;6190239;28;103321;-68
2022/12/26 07:06:23;;;;;;;8.47;7.67;;;;;;;22.19;30.48;96057.53;6211636;28;103003;-69
2022/12/26 07:09:26;;;;;;;7.90;7.30;;;;;;;22.43;30.74;96057.53;6203422;28;104246;-69
2022/12/26 07:12:35;;;;;;;8.10;7.50;;;;;;;22.56;30.64;96062.22;6210892;28;103226;-70
2022/12/26 07:15:39;;;;;;;9.50;8.70;;;;;;;22.56;30.19;96064.09;6189344;28;103853;-76
2022/12/26 07:18:42;;;;;;;11.37;10.47;;;;;;;22.59;30.42;96059.00;6203739;28;104199;-75
2022/12/26 07:21:47;;;;;;;17.97;16.57;;;;;;;22.69;30.63;96074.13;6211007;28;102699;-75
2022/12/26 07:24:50;;;;;;;18.20;16.80;;;;;;;22.59;31.08;96069.69;6207430;28;103201;-75
2022/12/26 07:27:54;;;;;;;20.07;18.43;;;;;;;22.41;31.65;96076.50;6191167;28;106098;-76
2022/12/26 07:30:58;;;;;;;19.60;18.10;;;;;;;22.32;31.92;96077.38;6202233;28;103102;-72
2022/12/26 07:34:03;;;;;;;19.37;17.87;;;;;;;22.27;32.01;96080.91;6188108;28;102996;-76
2022/12/26 07:37:09;;;;;;;19.47;17.80;;;;;;;22.24;31.50;96078.81;6201094;28;103465;-76
2022/12/26 07:40:13;;;;;;;19.30;17.70;;;;;;;22.24;32.03;96075.34;6194761;28;104683;-77
2022/12/26 07:43:17;;;;;;;18.53;17.03;;;;;;;22.22;31.46;96064.97;6211915;28;105921;-71
2022/12/26 07:46:20;;;;;;;18.33;16.40;;;;;;;22.10;31.58;96049.34;6203291;28;103023;-72
2022/12/26 07:49:24;;;;;;;16.90;15.50;;;;;;;22.04;31.82;96042.47;6194391;28;103019;-71
2022/12/26 07:52:29;;;;;;;17.97;16.27;;;;;;;22.14;31.46;96054.09;6208990;28;103464;-72
2022/12/26 07:55:32;;;;;;;15.40;14.00;;;;;;;22.19;31.64;96068.19;6208601;28;106013;-70
2022/12/26 07:58:35;;;;;;;16.77;15.00;;;;;;;22.13;31.73;96047.19;6201679;28;103963;-71
2022/12/26 08:01:38;;;;;;;16.50;15.20;;;;;;;22.19;31.70;96054.06;6198941;28;104661;-71
2022/12/26 08:04:41;;;;;;;16.17;14.80;;;;;;;22.20;31.65;96058.31;6207947;28;103116;-71
2022/12/26 08:07:48;;;;;;;17.80;16.20;;;;;;;22.13;31.81;96037.31;6203422;28;104009;-72
2022/12/26 08:10:59;;;;;;;18.30;16.80;;;;;;;22.29;31.93;96045.97;6203354;28;104372;-71
2022/12/26 08:14:03;;;;;;;19.37;17.60;;;;;;;22.25;32.57;96042.28;6190777;28;103335;-70
2022/12/26 08:17:06;;;;;;;20.13;18.33;;;;;;;22.23;32.32;96047.09;6209277;28;103661;-70
2022/12/26 08:20:10;;;;;;;20.07;18.23;;;;;;;22.14;32.46;96038.91;6197921;28;103751;-69
2022/12/26 08:23:14;;;;;;;24.00;21.87;;;;;;;22.16;32.65;96044.75;6205278;28;103106;-70
2022/12/26 08:26:21;;;;;;;20.90;19.10;;;;;;;22.14;32.65;96046.91;6202942;28;103346;-70
2022/12/26 08:29:25;;;;;;;23.37;21.27;;;;;;;22.12;32.83;96054.38;6199432;28;103142;-70
2022/12/26 08:32:28;;;;;;;26.90;24.60;;;;;;;22.06;33.27;96048.31;6209654;28;103233;-70
2022/12/26 08:35:31;;;;;;;29.70;27.00;;;;;;;22.13;33.03;96063.97;6195540;28;103224;-70
2022/12/26 08:38:35;;;;;;;30.13;27.33;;;;;;;22.09;33.35;96058.41;6200619;28;103898;-71
2022/12/26 08:41:39;;;;;;;28.30;25.60;;;;;;;22.12;33.32;96062.38;6210767;28;102737;-70
2022/12/26 08:44:43;;;;;;;30.40;27.47;;;;;;;22.10;32.91;96051.19;6206147;28;103267;-70
2022/12/26 08:47:46;;;;;;;27.90;25.53;;;;;;;22.09;32.96;96054.94;6188819;28;103948;-71
2022/12/26 08:50:54;;;;;;;31.70;28.83;;;;;;;22.10;32.90;96048.53;6207977;28;104277;-71
2022/12/26 08:53:59;;;;;;;33.97;30.90;;;;;;;22.09;32.95;96047.75;6189781;28;102972;-70
2022/12/26 08:57:02;;;;;;;34.73;31.50;;;;;;;22.07;32.99;96049.09;6207941;28;103369;-69
2022/12/26 09:00:08;;;;;;;32.47;29.37;;;;;;;22.06;33.45;96034.97;6190822;28;106419;-68
2022/12/26 09:03:11;;;;;;;31.57;28.80;;;;;;;22.10;33.08;96033.34;6203698;28;103178;-69
2022/12/26 09:06:15;;;;;;;33.17;30.07;;;;;;;21.92;33.42;96006.59;6197365;28;102918;-70
2022/12/26 09:09:22;;;;;;;33.83;30.77;;;;;;;22.10;33.58;96038.66;6186733;28;103028;-69
2022/12/26 09:12:26;;;;;;;36.93;33.30;;;;;;;22.18;34.09;96039.13;6203766;28;104746;-69
2022/12/26 09:15:29;;;;;;;35.13;31.40;;;;;;;22.22;34.39;96040.16;6201460;28;103067;-69
2022/12/26 09:18:32;;;;;;;34.00;30.93;;;;;;;22.26;34.12;96035.84;6196775;28;103503;-69
2022/12/26 09:21:35;;;;;;;31.90;28.93;;;;;;;22.25;34.13;96029.72;6197848;28;104782;-71
2022/12/26 09:24:41;;;;;;;28.67;25.97;;;;;;;22.27;34.32;96032.91;6206671;28;103606;-69
2022/12/26 09:27:44;;;;;;;29.43;26.73;;;;;;;22.33;34.30;96034.44;6198953;28;103558;-70
2022/12/26 09:30:47;;;;;;;29.97;27.07;;;;;;;22.41;34.21;96025.03;6188261;28;104326;-72
2022/12/26 09:33:52;;;;;;;29.10;26.53;;;;;;;22.42;34.01;96015.97;6193623;28;103187;-72
2022/12/26 09:36:55;;;;;;;29.60;26.90;;;;;;;22.50;34.06;96020.66;6204074;28;105182;-72
2022/12/26 09:40:00;;;;;;;30.43;27.47;;;;;;;22.33;34.16;95983.75;6199568;28;103646;-71
2022/12/26 09:43:17;;;;;;;28.90;26.30;;;;;;;22.59;34.05;96005.66;6209305;28;105913;-72
2022/12/26 09:46:30;;;;;;;30.50;27.70;;;;;;;22.62;33.86;96020.28;6194537;28;103952;-71
2022/12/26 09:49:37;;;;;;;32.93;29.90;;;;;;;22.60;34.07;96019.78;6195279;28;103199;-70
2022/12/26 09:52:48;;;;;;;31.27;28.47;;;;;;;22.62;33.97;96014.94;6199481;28;103450;-70
2022/12/26 09:55:57;;;;;;;33.30;30.10;;;;;;;22.34;33.98;95969.34;6194566;28;102907;-70
2022/12/26 09:59:06;;;;;;;32.83;29.90;;;;;;;22.45;34.23;95980.72;6194018;28;104277;-70
2022/12/26 10:02:16;;;;;;;32.63;29.60;;;;;;;22.63;33.83;96009.34;6207544;28;103194;-71
2022/12/26 10:05:21;;;;;;;33.37;30.27;;;;;;;22.59;34.26;96010.97;6206166;28;103236;-71
2022/12/26 10:08:36;;;;;;;28.70;26.10;;;;;;;22.52;34.30;95999.06;6182673;28;102901;-72
2022/12/26 10:11:53;;;;;;;26.33;24.10;;;;;;;22.46;33.89;95987.63;6209881;28;104185;-68
2022/12/26 10:15:03;;;;;;;24.37;22.17;;;;;;;22.47;33.87;95989.22;6209326;28;105850;-70
2022/12/26 10:18:30;;;;;;;21.83;19.93;;;;;;;22.46;33.31;95984.97;6205714;28;105725;-68
2022/12/26 10:21:42;;;;;;;22.47;20.20;;;;;;;22.44;33.61;95976.47;6205327;28;105098;-70
2022/12/26 10:24:48;;;;;;;19.53;17.83;;;;;;;22.39;33.79;95979.19;6211592;28;103308;-69
2022/12/26 10:27:52;;;;;;;19.10;17.40;;;;;;;22.26;33.54;95954.00;6214343;28;103339;-68
2022/12/26 10:30:59;;;;;;;19.03;17.33;;;;;;;22.31;34.03;95958.47;6203865;28;104564;-69
2022/12/26 10:34:10;;;;;;;20.20;18.30;;;;;;;22.33;33.82;95950.97;6191413;28;102952;-69
2022/12/26 10:37:22;;;;;;;20.27;18.37;;;;;;;22.20;33.70;95935.69;6189061;28;103422;-69
2022/12/26 10:40:31;;;;;;;20.50;18.27;;;;;;;22.33;34.26;95953.63;6188249;28;103765;-70
2022/12/26 10:43:36;;;;;;;21.87;19.87;;;;;;;22.33;33.95;95958.97;6177528;28;103301;-69
2022/12/26 10:46:56;;;;;;;20.80;19.00;;;;;;;22.32;33.92;95949.38;6188716;28;104215;-71
2022/12/26 10:50:00;;;;;;;22.60;20.50;;;;;;;22.23;34.21;95943.91;6189126;28;103027;-70
2022/12/26 10:53:07;;;;;;;21.83;19.83;;;;;;;22.21;34.05;95934.59;6183810;28;102788;-70
2022/12/26 10:56:10;;;;;;;20.27;18.47;;;;;;;22.29;34.49;95949.97;6190669;28;102973;-69
2022/12/26 10:59:35;;;;;;;20.73;18.90;;;;;;;22.28;34.36;95943.84;6198153;28;103486;-70
2022/12/26 11:02:38;;;;;;;20.57;18.67;;;;;;;22.30;33.95;95938.22;6212768;28;103059;-69
2022/12/26 11:05:44;;;;;;;22.30;20.40;;;;;;;22.31;34.38;95939.81;6196847;28;103861;-70
2022/12/26 11:09:12;;;;;;;22.20;20.10;;;;;;;22.30;34.45;95933.69;6204065;28;102747;-70
2022/12/26 11:12:21;;;;;;;20.50;18.70;;;;;;;22.27;34.42;95923.59;6208608;28;103304;-70
2022/12/26 11:15:32;;;;;;;22.07;19.80;;;;;;;22.31;34.14;95924.59;6212362;28;103353;-70
2022/12/26 11:18:38;;;;;;;22.73;20.63;;;;;;;22.33;34.61;95929.63;6201103;28;103077;-69
2022/12/26 11:21:42;;;;;;;22.93;20.83;;;;;;;22.27;34.30;95906.78;6209652;28;103116;-70
2022/12/26 11:24:45;;;;;;;23.50;21.33;;;;;;;22.35;34.73;95911.50;6212301;28;104441;-69
2022/12/26 11:27:50;;;;;;;24.13;22.13;;;;;;;22.35;34.75;95906.19;6202109;28;104478;-69
2022/12/26 11:30:55;;;;;;;23.93;21.57;;;;;;;22.30;34.80;95898.22;6212069;28;105738;-70
2022/12/26 11:34:01;;;;;;;24.63;22.40;;;;;;;22.27;34.55;95891.59;6212676;28;103123;-72
2022/12/26 11:37:06;;;;;;;24.07;22.07;;;;;;;22.37;34.46;95899.47;6211622;28;104010;-71
2022/12/26 11:40:18;;;;;;;24.60;22.43;;;;;;;22.39;34.68;95901.84;6199779;28;103467;-70
2022/12/26 11:43:24;;;;;;;28.17;25.77;;;;;;;22.40;34.39;95898.91;6210012;28;102991;-69
2022/12/26 11:46:40;;;;;;;31.63;28.83;;;;;;;22.37;34.52;95894.13;6212357;28;105901;-70
2022/12/26 11:49:50;;;;;;;41.00;37.70;;;;;;;22.40;34.42;95893.56;6212474;28;103975;-70
2022/12/26 11:53:05;;;;;;;45.53;41.53;;;;;;;22.40;35.01;95890.09;6200286;28;104231;-70
2022/12/26 11:56:10;;;;;;;44.57;40.53;;;;;;;22.38;34.92;95887.72;6211424;28;103315;-70
2022/12/26 11:59:19;;;;;;;49.40;44.93;;;;;;;22.37;35.21;95882.69;6211330;28;103692;-71
2022/12/26 12:02:26;;;;;;;48.63;44.43;;;;;;;22.37;34.74;95883.47;6202267;28;103553;-70
2022/12/26 12:05:40;;;;;;;47.80;43.60;;;;;;;22.36;35.29;95878.44;6210978;28;103040;-70
2022/12/26 12:08:52;;;;;;;46.63;42.60;;;;;;;22.33;35.02;95861.09;6211282;28;102986;-70
2022/12/26 12:12:00;;;;;;;47.57;43.40;;;;;;;22.32;35.04;95864.06;6211799;28;104112;-71
2022/12/26 12:15:13;;;;;;;50.03;45.80;;;;;;;22.30;35.11;95860.88;6198929;28;103027;-69
2022/12/26 12:18:29;;;;;;;47.77;43.63;;;;;;;22.27;34.90;95862.25;6209414;28;103167;-69
2022/12/26 12:21:43;;;;;;;49.37;45.17;;;;;;;22.19;34.95;95854.13;6211320;28;103278;-69
2022/12/26 12:25:00;;;;;;;48.37;44.33;;;;;;;22.23;35.23;95865.78;6206425;28;103367;-70
2022/12/26 12:28:25;;;;;;;47.80;43.67;;;;;;;22.21;35.64;95857.28;6204853;28;103224;-70
2022/12/26 12:31:38;;;;;;;50.30;46.00;;;;;;;22.19;35.29;95859.44;6211531;28;102964;-70
2022/12/26 12:35:22;;;;;;;49.57;45.27;;;;;;;22.17;35.40;95867.72;6211954;28;103665;-70
2022/12/26 12:38:30;;;;;;;48.77;44.73;;;;;;;22.14;35.91;95862.16;6192216;28;103272;-68
2022/12/26 12:41:56;;;;;;;47.23;43.10;;;;;;;22.21;35.25;95851.97;6201753;28;103233;-68
2022/12/26 12:45:25;;;;;;;45.80;41.90;;;;;;;22.25;35.59;95852.97;6179529;28;103403;-68
2022/12/26 12:48:48;;;;;;;46.07;42.07;;;;;;;22.22;35.36;95849.00;6193118;28;103383;-68
2022/12/26 12:52:05;;;;;;;43.53;39.77;;;;;;;22.33;35.85;95862.97;6208786;28;103247;-69
2022/12/26 12:55:28;;;;;;;44.57;40.70;;;;;;;22.32;36.28;95856.84;6207937;28;103648;-69
2022/12/26 12:58:46;;;;;;;44.43;40.63;;;;;;;22.34;36.40;95852.03;6209224;28;103047;-69
2022/12/26 13:01:54;;;;;;;42.43;38.90;;;;;;;22.37;36.58;95862.13;6177694;28;103967;-69
2022/12/26 13:05:06;;;;;;;41.03;37.50;;;;;;;22.34;36.41;95851.22;6201106;28;103010;-68
2022/12/26 13:08:17;;;;;;;41.77;38.20;;;;;;;22.41;36.28;95862.34;6203692;28;103312;-67
2022/12/26 13:11:25;;;;;;;40.40;36.93;;;;;;;22.38;36.66;95861.06;6201096;28;103077;-67
2022/12/26 13:14:32;;;;;;;38.30;35.10;;;;;;;22.35;36.19;95848.31;6190246;28;104095;-68
2022/12/26 13:17:39;;;;;;;37.90;34.63;;;;;;;22.37;36.43;95848.81;6205671;28;103608;-68
2022/12/26 13:20:46;;;;;;;36.80;33.80;;;;;;;22.39;37.04;95851.19;6191995;28;103555;-68
2022/12/26 13:27:22;;;;;;;35.37;32.33;;;;;;;22.38;36.74;95862.94;6209533;28;103333;-69
2022/12/26 13:30:25;;;;;;;36.10;33.07;;;;;;;22.44;37.18;95866.31;6207827;28;103988;-69
2022/12/26 13:33:35;;;;;;;34.70;31.80;;;;;;;22.42;37.27;95853.28;6209966;28;103006;-69
2022/12/26 13:36:42;;;;;;;34.77;31.77;;;;;;;22.43;36.77;95854.84;6201289;28;104320;-68
2022/12/26 13:39:52;;;;;;;33.17;30.30;;;;;;;22.44;37.07;95852.97;6206361;28;102986;-66
2022/12/26 13:46:38;;;;;;;32.93;30.10;;;;;;;22.44;37.24;95853.78;6196240;28;103338;-68
2022/12/26 13:49:42;;;;;;;32.27;29.67;;;;;;;22.43;36.80;95854.84;6209308;28;103412;-69
2022/12/26 13:52:46;;;;;;;30.67;28.07;;;;;;;22.42;37.37;95842.59;6209513;28;104188;-68
2022/12/26 13:55:53;;;;;;;30.27;27.77;;;;;;;22.39;37.35;95849.31;6196829;28;104189;-68
2022/12/26 13:59:09;;;;;;;31.40;28.57;;;;;;;22.37;37.46;95846.13;6194758;28;103238;-68
2022/12/26 14:02:38;;;;;;;31.47;28.80;;;;;;;22.40;37.60;95847.44;6213438;28;103066;-69
2022/12/26 14:06:32;;;;;;;28.97;26.63;;;;;;;22.37;37.44;95856.81;6210725;28;103303;-68
2022/12/26 14:09:46;;;;;;;27.37;25.07;;;;;;;22.36;37.81;95851.75;6196221;28;106904;-68
2022/12/26 14:13:07;;;;;;;28.13;25.77;;;;;;;22.34;37.28;95852.03;6212419;28;103066;-68
2022/12/26 14:16:18;;;;;;;26.40;24.13;;;;;;;22.35;37.86;95847.50;6210736;28;103202;-68
2022/12/26 14:19:36;;;;;;;27.83;25.43;;;;;;;22.34;37.77;95849.34;6212662;28;104870;-68
2022/12/26 14:22:49;;;;;;;27.23;25.03;;;;;;;22.34;37.94;95846.69;6198609;28;103299;-69
2022/12/26 14:26:02;;;;;;;25.43;23.33;;;;;;;22.38;37.84;95844.25;6203916;28;103028;-69
2022/12/26 14:29:17;;;;;;;26.30;24.00;;;;;;;22.35;37.74;95842.19;6212044;28;102848;-68
2022/12/26 14:32:33;;;;;;;25.20;23.10;;;;;;;22.35;38.04;95852.84;6203562;28;105002;-68
2022/12/26 14:35:44;;;;;;;23.90;21.90;;;;;;;22.34;37.94;95851.22;6210376;28;103068;-68
2022/12/26 14:38:55;;;;;;;23.93;22.13;;;;;;;22.32;38.01;95859.53;6203225;28;103129;-67
2022/12/26 14:45:49;;;;;;;23.17;21.27;;;;;;;22.36;37.95;95863.22;6197049;28;103479;-68
2022/12/26 14:48:59;;;;;;;23.27;21.43;;;;;;;22.40;38.57;95860.78;6198557;28;103251;-67
2022/12/26 14:52:36;;;;;;;22.83;20.83;;;;;;;22.40;38.40;95858.09;6197437;28;103666;-67
2022/12/26 14:55:47;;;;;;;21.60;19.80;;;;;;;22.40;38.47;95858.91;6186658;28;103100;-66
2022/12/26 14:58:51;;;;;;;21.83;20.03;;;;;;;22.37;38.46;95861.34;6197814;28;103887;-67
2022/12/26 15:02:27;;;;;;;21.00;19.30;;;;;;;22.39;38.83;95864.53;6200459;28;104395;-67
2022/12/26 15:05:36;;;;;;;20.23;18.70;;;;;;;22.36;38.34;95865.88;6195086;28;103074;-66
2022/12/26 15:08:57;;;;;;;21.23;19.53;;;;;;;22.38;38.75;95862.94;6188930;28;103338;-67
2022/12/26 15:12:27;;;;;;;20.90;19.20;;;;;;;22.41;38.34;95860.47;6193956;28;103123;-68
2022/12/26 15:15:38;;;;;;;21.00;19.33;;;;;;;22.36;38.91;95854.44;6186912;28;103019;-69
2022/12/26 15:19:25;;;;;;;20.17;18.40;;;;;;;22.33;38.46;95854.97;6181480;28;104274;-68
2022/12/26 15:23:00;;;;;;;19.50;17.70;;;;;;;22.30;38.47;95845.69;6195614;28;104016;-67
2022/12/26 15:26:37;;;;;;;20.80;18.90;;;;;;;22.30;38.12;95836.91;6200771;28;103263;-69
2022/12/26 15:30:01;;;;;;;18.97;17.47;;;;;;;22.26;37.94;95834.00;6183266;28;104025;-69
2022/12/26 15:33:14;;;;;;;19.70;17.93;;;;;;;22.20;38.31;95831.72;6196847;28;103723;-71
2022/12/26 15:36:26;;;;;;;23.13;20.80;;;;;;;22.12;38.19;95833.13;6203084;28;103032;-73
2022/12/26 15:39:38;;;;;;;25.03;22.80;;;;;;;22.08;37.63;95832.91;6189381;28;103047;-73
2022/12/26 15:42:50;;;;;;;26.50;24.20;;;;;;;22.06;37.42;95839.63;6172172;28;104353;-73
2022/12/26 15:46:01;;;;;;;29.90;27.20;;;;;;;22.06;36.88;95848.41;6191861;28;103292;-72
2022/12/26 15:49:36;;;;;;;30.50;27.70;;;;;;;22.05;36.59;95846.03;6202596;28;103199;-73
2022/12/26 15:52:51;;;;;;;28.50;26.00;;;;;;;22.08;36.19;95845.44;6195998;28;104261;-74
2022/12/26 15:56:11;;;;;;;29.70;27.10;;;;;;;22.14;36.13;95830.16;6187194;28;103346;-71
2022/12/26 15:59:41;;;;;;;29.27;26.50;;;;;;;22.27;36.18;95846.25;6198911;28;103194;-70
2022/12/26 16:02:49;;;;;;;28.57;25.97;;;;;;;22.35;36.66;95842.19;6188707;28;103091;-70
2022/12/26 16:06:01;;;;;;;27.97;25.57;;;;;;;22.36;36.71;95847.22;6177729;28;105007;-72
2022/12/26 16:09:27;;;;;;;26.27;23.97;;;;;;;22.41;36.72;95841.00;6210838;28;102991;-69
2022/12/26 16:12:32;;;;;;;26.87;24.30;;;;;;;22.44;37.09;95845.78;6197745;28;103536;-70
2022/12/26 16:15:45;;;;;;;26.07;23.77;;;;;;;22.37;37.25;95845.34;6182864;28;105865;-71
2022/12/26 16:18:49;;;;;;;25.50;23.30;;;;;;;22.38;37.35;95858.38;6197887;28;103231;-72
2022/12/26 16:25:21;;;;;;;25.57;23.37;;;;;;;22.30;36.79;95858.22;6203657;28;103274;-69
2022/12/26 16:28:27;;;;;;;29.50;26.90;;;;;;;22.22;36.41;95856.22;6186833;28;103396;-71
2022/12/26 16:31:30;;;;;;;28.00;25.40;;;;;;;22.18;36.39;95863.16;6209868;28;103567;-70
2022/12/26 16:34:36;;;;;;;27.67;25.17;;;;;;;22.18;35.94;95863.16;6203804;28;103258;-69
2022/12/26 16:37:40;;;;;;;28.73;26.13;;;;;;;22.18;36.07;95863.16;6198869;28;103052;-70
2022/12/26 16:40:46;;;;;;;34.10;31.13;;;;;;;22.16;36.07;95863.47;6194444;28;103356;-71